This is the latest recevied weather packets stored in our database for station/object N3TJJ-2. If no packets are shown the sender has not sent any weather packets the latest 10 day(s).
| Time | Temp. | Humidity | Pressure | Rain* | Wind** | Luminosity | Snow |
|---|---|---|---|---|---|---|---|
| 1777749432 | 13.33° C | 46% | 1013.3 hPa | 0 mm | - | - | - |
| 1777749081 | 12.78° C | 47% | 1013.5 hPa | 0 mm | - | - | - |
| 1777748717 | 12.78° C | 46% | 1013.6 hPa | 0 mm | - | - | - |
| 1777748354 | 13.33° C | 45% | 1013.7 hPa | 0 mm | - | - | - |
| 1777748002 | 13.33° C | 43% | 1013.6 hPa | 0 mm | - | - | - |
| 1777747633 | 13.33° C | 43% | 1013.8 hPa | 0 mm | - | - | - |
| 1777747276 | 13.89° C | 44% | 1013.9 hPa | 0 mm | - | - | - |
| 1777746917 | 13.33° C | 43% | 1014 hPa | 0 mm | - | - | - |
| 1777746560 | 13.33° C | 42% | 1014.1 hPa | 0 mm | - | - | - |
| 1777746195 | 13.33° C | 44% | 1014 hPa | 0 mm | - | - | - |
| 1777745832 | 13.33° C | 45% | 1014.1 hPa | 0 mm | - | - | - |
| 1777745478 | 13.33° C | 47% | 1014.1 hPa | 0 mm | - | - | - |
| 1777745128 | 13.33° C | 48% | 1014.1 hPa | 0 mm | - | - | - |
| 1777744760 | 13.33° C | 46% | 1014.1 hPa | 0 mm | - | - | - |
| 1777744395 | 13.33° C | 46% | 1014.1 hPa | 0 mm | - | - | - |
| 1777744032 | 13.33° C | 48% | 1014.1 hPa | 0 mm | - | - | - |
| 1777743678 | 13.33° C | 47% | 1014.1 hPa | 0 mm | - | - | - |
| 1777743319 | 13.33° C | 49% | 1014.3 hPa | 0 mm | - | - | - |
| 1777742961 | 13.33° C | 54% | 1014.2 hPa | 0 mm | - | - | - |
| 1777742596 | 13.33° C | 50% | 1014.3 hPa | 0 mm | - | - | - |
| 1777742248 | 12.78° C | 53% | 1014.3 hPa | 0 mm | - | - | - |
| 1777741883 | 13.33° C | 50% | 1014.4 hPa | 0 mm | - | - | - |
| 1777741539 | 12.78° C | 55% | 1014.1 hPa | 0 mm | - | - | - |
| 1777741154 | 12.78° C | 51% | 1014.3 hPa | 0 mm | - | - | - |
| 1777740792 | 12.78° C | 52% | 1014.4 hPa | 0 mm | - | - | - |
* Rain latest hour (hover to see other rain measurements)
** Current wind speed in m/s (hover to see current wind gust speed)